sensor_id;sensor_type;location;lat;lon;timestamp;P1;durP1;ratioP1;P2;durP2;ratioP2
72198;SDS011;60103;51.014;16.992;2022-12-07T00:01:48;8.90;;;3.30;;
72198;SDS011;60103;51.014;16.992;2022-12-07T00:04:17;9.50;;;3.00;;
72198;SDS011;60103;51.014;16.992;2022-12-07T00:06:47;10.80;;;3.90;;
72198;SDS011;60103;51.014;16.992;2022-12-07T00:09:22;10.70;;;3.70;;
72198;SDS011;60103;51.014;16.992;2022-12-07T00:11:51;8.90;;;3.30;;
72198;SDS011;60103;51.014;16.992;2022-12-07T00:14:20;10.20;;;3.40;;
72198;SDS011;60103;51.014;16.992;2022-12-07T00:16:50;9.30;;;3.20;;
72198;SDS011;60103;51.014;16.992;2022-12-07T00:19:19;10.60;;;4.20;;
72198;SDS011;60103;51.014;16.992;2022-12-07T00:21:48;9.40;;;3.70;;
72198;SDS011;60103;51.014;16.992;2022-12-07T00:24:17;8.80;;;3.00;;
72198;SDS011;60103;51.014;16.992;2022-12-07T00:26:45;8.60;;;3.30;;
72198;SDS011;60103;51.014;16.992;2022-12-07T00:29:15;8.60;;;3.00;;
72198;SDS011;60103;51.014;16.992;2022-12-07T00:31:46;9.80;;;3.30;;
72198;SDS011;60103;51.014;16.992;2022-12-07T00:34:16;8.10;;;3.00;;
72198;SDS011;60103;51.014;16.992;2022-12-07T00:36:47;8.60;;;3.00;;
72198;SDS011;60103;51.014;16.992;2022-12-07T00:39:16;7.60;;;2.90;;
72198;SDS011;60103;51.014;16.992;2022-12-07T00:41:45;8.50;;;3.20;;
72198;SDS011;60103;51.014;16.992;2022-12-07T00:44:14;8.60;;;3.50;;
72198;SDS011;60103;51.014;16.992;2022-12-07T00:46:43;7.50;;;2.90;;
72198;SDS011;60103;51.014;16.992;2022-12-07T00:49:13;7.40;;;3.10;;
72198;SDS011;60103;51.014;16.992;2022-12-07T00:51:43;6.80;;;2.30;;
72198;SDS011;60103;51.014;16.992;2022-12-07T00:54:12;6.90;;;2.60;;
72198;SDS011;60103;51.014;16.992;2022-12-07T00:56:41;6.30;;;2.30;;
72198;SDS011;60103;51.014;16.992;2022-12-07T00:59:11;6.50;;;2.20;;
72198;SDS011;60103;51.014;16.992;2022-12-07T01:01:42;6.50;;;2.30;;
72198;SDS011;60103;51.014;16.992;2022-12-07T01:04:11;6.90;;;2.40;;
72198;SDS011;60103;51.014;16.992;2022-12-07T01:06:39;6.40;;;2.20;;
72198;SDS011;60103;51.014;16.992;2022-12-07T01:09:08;5.90;;;2.10;;
72198;SDS011;60103;51.014;16.992;2022-12-07T01:11:37;5.90;;;1.90;;
72198;SDS011;60103;51.014;16.992;2022-12-07T01:14:06;7.20;;;1.90;;
72198;SDS011;60103;51.014;16.992;2022-12-07T01:16:34;5.60;;;1.80;;
72198;SDS011;60103;51.014;16.992;2022-12-07T01:19:03;5.20;;;1.60;;
72198;SDS011;60103;51.014;16.992;2022-12-07T01:21:33;5.30;;;1.40;;
72198;SDS011;60103;51.014;16.992;2022-12-07T01:24:05;6.00;;;1.40;;
72198;SDS011;60103;51.014;16.992;2022-12-07T01:26:34;5.80;;;1.80;;
72198;SDS011;60103;51.014;16.992;2022-12-07T01:29:03;4.60;;;1.30;;
72198;SDS011;60103;51.014;16.992;2022-12-07T01:31:32;5.50;;;1.60;;
72198;SDS011;60103;51.014;16.992;2022-12-07T01:34:01;4.10;;;1.10;;
72198;SDS011;60103;51.014;16.992;2022-12-07T01:36:31;4.10;;;1.10;;
72198;SDS011;60103;51.014;16.992;2022-12-07T01:39:04;7.20;;;2.20;;
72198;SDS011;60103;51.014;16.992;2022-12-07T01:41:34;5.60;;;1.50;;
72198;SDS011;60103;51.014;16.992;2022-12-07T01:46:59;4.20;;;1.30;;
72198;SDS011;60103;51.014;16.992;2022-12-07T01:49:30;4.00;;;1.50;;
72198;SDS011;60103;51.014;16.992;2022-12-07T01:54:54;6.00;;;1.40;;
72198;SDS011;60103;51.014;16.992;2022-12-07T01:57:28;5.20;;;1.40;;
72198;SDS011;60103;51.014;16.992;2022-12-07T01:59:56;4.90;;;1.80;;
72198;SDS011;60103;51.014;16.992;2022-12-07T02:05:30;3.80;;;1.00;;
72198;SDS011;60103;51.014;16.992;2022-12-07T02:07:59;4.40;;;1.40;;
72198;SDS011;60103;51.014;16.992;2022-12-07T02:10:29;6.20;;;1.40;;
72198;SDS011;60103;51.014;16.992;2022-12-07T02:21:23;4.00;;;1.40;;
72198;SDS011;60103;51.014;16.992;2022-12-07T02:30:00;3.80;;;1.30;;
72198;SDS011;60103;51.014;16.992;2022-12-07T02:32:42;4.20;;;1.20;;
72198;SDS011;60103;51.014;16.992;2022-12-07T02:35:33;4.10;;;1.30;;
72198;SDS011;60103;51.014;16.992;2022-12-07T02:41:00;4.70;;;1.00;;
72198;SDS011;60103;51.014;16.992;2022-12-07T02:43:50;4.10;;;1.20;;
72198;SDS011;60103;51.014;16.992;2022-12-07T02:46:29;4.30;;;1.10;;
72198;SDS011;60103;51.014;16.992;2022-12-07T02:48:59;4.50;;;1.30;;
72198;SDS011;60103;51.014;16.992;2022-12-07T02:51:29;3.50;;;1.00;;
72198;SDS011;60103;51.014;16.992;2022-12-07T02:53:59;4.30;;;1.10;;
72198;SDS011;60103;51.014;16.992;2022-12-07T03:21:36;4.90;;;1.60;;
72198;SDS011;60103;51.014;16.992;2022-12-07T03:24:12;4.60;;;1.50;;
72198;SDS011;60103;51.014;16.992;2022-12-07T03:26:44;5.00;;;2.00;;
72198;SDS011;60103;51.014;16.992;2022-12-07T03:29:20;5.80;;;1.90;;
72198;SDS011;60103;51.014;16.992;2022-12-07T03:31:55;5.40;;;1.90;;
72198;SDS011;60103;51.014;16.992;2022-12-07T03:34:33;5.30;;;1.70;;
72198;SDS011;60103;51.014;16.992;2022-12-07T03:37:05;6.20;;;2.30;;
72198;SDS011;60103;51.014;16.992;2022-12-07T03:39:39;5.90;;;1.90;;
72198;SDS011;60103;51.014;16.992;2022-12-07T03:42:09;5.40;;;1.80;;
72198;SDS011;60103;51.014;16.992;2022-12-07T03:44:39;7.20;;;2.40;;
72198;SDS011;60103;51.014;16.992;2022-12-07T03:47:16;5.70;;;2.00;;
72198;SDS011;60103;51.014;16.992;2022-12-07T03:49:54;6.10;;;2.00;;
72198;SDS011;60103;51.014;16.992;2022-12-07T03:55:49;8.60;;;2.40;;
72198;SDS011;60103;51.014;16.992;2022-12-07T03:58:19;6.30;;;2.30;;
72198;SDS011;60103;51.014;16.992;2022-12-07T04:00:49;4.80;;;1.90;;
72198;SDS011;60103;51.014;16.992;2022-12-07T04:03:18;6.30;;;2.20;;
72198;SDS011;60103;51.014;16.992;2022-12-07T04:05:47;6.30;;;1.90;;
72198;SDS011;60103;51.014;16.992;2022-12-07T04:08:16;7.40;;;1.90;;
72198;SDS011;60103;51.014;16.992;2022-12-07T04:10:45;5.10;;;1.30;;
72198;SDS011;60103;51.014;16.992;2022-12-07T04:13:14;6.80;;;1.60;;
72198;SDS011;60103;51.014;16.992;2022-12-07T04:15:42;6.00;;;1.80;;
72198;SDS011;60103;51.014;16.992;2022-12-07T04:18:11;6.50;;;1.80;;
72198;SDS011;60103;51.014;16.992;2022-12-07T04:20:40;5.70;;;1.80;;
72198;SDS011;60103;51.014;16.992;2022-12-07T04:23:09;4.60;;;1.40;;
72198;SDS011;60103;51.014;16.992;2022-12-07T04:25:39;5.10;;;1.60;;
72198;SDS011;60103;51.014;16.992;2022-12-07T04:28:08;5.60;;;1.70;;
72198;SDS011;60103;51.014;16.992;2022-12-07T04:30:37;5.20;;;1.60;;
72198;SDS011;60103;51.014;16.992;2022-12-07T04:33:06;4.70;;;1.60;;
72198;SDS011;60103;51.014;16.992;2022-12-07T04:35:36;5.20;;;1.70;;
72198;SDS011;60103;51.014;16.992;2022-12-07T04:38:04;4.60;;;1.50;;
72198;SDS011;60103;51.014;16.992;2022-12-07T04:40:34;5.40;;;1.50;;
72198;SDS011;60103;51.014;16.992;2022-12-07T04:43:03;5.20;;;1.70;;
72198;SDS011;60103;51.014;16.992;2022-12-07T04:45:33;4.60;;;1.50;;
72198;SDS011;60103;51.014;16.992;2022-12-07T04:48:01;6.90;;;1.60;;
72198;SDS011;60103;51.014;16.992;2022-12-07T04:50:30;4.80;;;1.60;;
72198;SDS011;60103;51.014;16.992;2022-12-07T04:52:59;5.30;;;1.60;;
72198;SDS011;60103;51.014;16.992;2022-12-07T04:55:27;4.20;;;1.30;;
72198;SDS011;60103;51.014;16.992;2022-12-07T04:57:56;6.10;;;1.90;;
72198;SDS011;60103;51.014;16.992;2022-12-07T05:00:25;5.30;;;1.60;;
72198;SDS011;60103;51.014;16.992;2022-12-07T05:02:54;5.70;;;1.90;;
72198;SDS011;60103;51.014;16.992;2022-12-07T05:05:22;5.90;;;2.00;;
72198;SDS011;60103;51.014;16.992;2022-12-07T05:07:52;6.40;;;1.90;;
72198;SDS011;60103;51.014;16.992;2022-12-07T05:10:21;4.90;;;1.60;;
72198;SDS011;60103;51.014;16.992;2022-12-07T05:12:51;5.10;;;1.80;;
72198;SDS011;60103;51.014;16.992;2022-12-07T05:15:20;6.20;;;1.80;;
72198;SDS011;60103;51.014;16.992;2022-12-07T05:17:49;6.50;;;1.90;;
72198;SDS011;60103;51.014;16.992;2022-12-07T05:20:20;7.40;;;1.80;;
72198;SDS011;60103;51.014;16.992;2022-12-07T05:22:49;5.00;;;1.60;;
72198;SDS011;60103;51.014;16.992;2022-12-07T05:25:17;5.20;;;1.80;;
72198;SDS011;60103;51.014;16.992;2022-12-07T05:27:46;6.30;;;2.10;;
72198;SDS011;60103;51.014;16.992;2022-12-07T05:30:15;6.30;;;1.80;;
72198;SDS011;60103;51.014;16.992;2022-12-07T05:32:44;7.60;;;2.60;;
72198;SDS011;60103;51.014;16.992;2022-12-07T05:35:13;7.70;;;2.00;;
72198;SDS011;60103;51.014;16.992;2022-12-07T05:37:42;5.10;;;1.60;;
72198;SDS011;60103;51.014;16.992;2022-12-07T05:40:11;7.60;;;2.60;;
72198;SDS011;60103;51.014;16.992;2022-12-07T05:42:42;12.20;;;3.30;;
72198;SDS011;60103;51.014;16.992;2022-12-07T05:45:10;10.50;;;4.30;;
72198;SDS011;60103;51.014;16.992;2022-12-07T05:47:39;9.30;;;3.20;;
72198;SDS011;60103;51.014;16.992;2022-12-07T05:50:08;11.10;;;3.90;;
72198;SDS011;60103;51.014;16.992;2022-12-07T05:52:37;9.80;;;3.40;;
72198;SDS011;60103;51.014;16.992;2022-12-07T05:55:06;12.20;;;4.50;;
72198;SDS011;60103;51.014;16.992;2022-12-07T05:57:35;12.70;;;4.40;;
72198;SDS011;60103;51.014;16.992;2022-12-07T06:00:04;12.10;;;4.90;;
72198;SDS011;60103;51.014;16.992;2022-12-07T06:02:39;10.60;;;4.10;;
72198;SDS011;60103;51.014;16.992;2022-12-07T06:05:08;11.30;;;4.40;;
72198;SDS011;60103;51.014;16.992;2022-12-07T06:07:37;10.90;;;4.30;;
72198;SDS011;60103;51.014;16.992;2022-12-07T06:10:05;11.80;;;4.50;;
72198;SDS011;60103;51.014;16.992;2022-12-07T06:12:35;13.40;;;5.60;;
72198;SDS011;60103;51.014;16.992;2022-12-07T06:15:06;14.50;;;6.30;;
72198;SDS011;60103;51.014;16.992;2022-12-07T06:17:35;12.50;;;4.90;;
72198;SDS011;60103;51.014;16.992;2022-12-07T06:20:05;14.30;;;5.20;;
72198;SDS011;60103;51.014;16.992;2022-12-07T06:22:34;13.60;;;5.30;;
72198;SDS011;60103;51.014;16.992;2022-12-07T06:25:03;14.30;;;5.60;;
72198;SDS011;60103;51.014;16.992;2022-12-07T06:27:35;14.40;;;4.90;;
72198;SDS011;60103;51.014;16.992;2022-12-07T06:30:05;14.00;;;5.60;;
72198;SDS011;60103;51.014;16.992;2022-12-07T06:32:36;14.90;;;5.90;;
72198;SDS011;60103;51.014;16.992;2022-12-07T06:35:05;16.80;;;6.30;;
72198;SDS011;60103;51.014;16.992;2022-12-07T06:37:34;13.20;;;5.10;;
72198;SDS011;60103;51.014;16.992;2022-12-07T06:40:03;14.60;;;4.90;;
72198;SDS011;60103;51.014;16.992;2022-12-07T06:42:33;16.90;;;6.70;;
72198;SDS011;60103;51.014;16.992;2022-12-07T06:45:02;14.90;;;6.40;;
72198;SDS011;60103;51.014;16.992;2022-12-07T06:47:31;13.00;;;5.50;;
72198;SDS011;60103;51.014;16.992;2022-12-07T06:50:13;15.50;;;6.20;;
72198;SDS011;60103;51.014;16.992;2022-12-07T06:52:42;15.50;;;7.00;;
72198;SDS011;60103;51.014;16.992;2022-12-07T06:55:10;15.70;;;6.10;;
72198;SDS011;60103;51.014;16.992;2022-12-07T06:57:39;15.00;;;6.20;;
72198;SDS011;60103;51.014;16.992;2022-12-07T07:00:08;12.60;;;5.10;;
72198;SDS011;60103;51.014;16.992;2022-12-07T07:02:37;15.80;;;6.40;;
72198;SDS011;60103;51.014;16.992;2022-12-07T07:05:06;10.90;;;4.80;;
72198;SDS011;60103;51.014;16.992;2022-12-07T07:07:35;16.10;;;6.20;;
72198;SDS011;60103;51.014;16.992;2022-12-07T07:10:24;14.70;;;5.60;;
72198;SDS011;60103;51.014;16.992;2022-12-07T07:12:53;13.20;;;4.20;;
72198;SDS011;60103;51.014;16.992;2022-12-07T07:15:24;12.60;;;4.60;;
72198;SDS011;60103;51.014;16.992;2022-12-07T07:17:53;14.00;;;5.10;;
72198;SDS011;60103;51.014;16.992;2022-12-07T07:20:23;14.50;;;5.80;;
72198;SDS011;60103;51.014;16.992;2022-12-07T07:22:53;14.70;;;6.00;;
72198;SDS011;60103;51.014;16.992;2022-12-07T07:25:22;14.10;;;4.80;;
72198;SDS011;60103;51.014;16.992;2022-12-07T07:27:51;16.80;;;6.60;;
72198;SDS011;60103;51.014;16.992;2022-12-07T07:30:20;14.30;;;6.10;;
72198;SDS011;60103;51.014;16.992;2022-12-07T07:32:48;17.60;;;6.70;;
72198;SDS011;60103;51.014;16.992;2022-12-07T07:35:17;18.30;;;7.20;;
72198;SDS011;60103;51.014;16.992;2022-12-07T07:37:46;14.20;;;6.00;;
72198;SDS011;60103;51.014;16.992;2022-12-07T07:40:15;17.20;;;6.90;;
72198;SDS011;60103;51.014;16.992;2022-12-07T07:42:46;14.00;;;5.70;;
72198;SDS011;60103;51.014;16.992;2022-12-07T07:45:16;18.20;;;6.70;;
72198;SDS011;60103;51.014;16.992;2022-12-07T07:47:45;14.80;;;5.90;;
72198;SDS011;60103;51.014;16.992;2022-12-07T07:50:14;12.00;;;4.50;;
72198;SDS011;60103;51.014;16.992;2022-12-07T07:52:44;16.00;;;6.30;;
72198;SDS011;60103;51.014;16.992;2022-12-07T07:55:13;16.60;;;5.80;;
72198;SDS011;60103;51.014;16.992;2022-12-07T07:57:43;17.10;;;6.80;;
72198;SDS011;60103;51.014;16.992;2022-12-07T08:00:21;16.30;;;6.20;;
72198;SDS011;60103;51.014;16.992;2022-12-07T08:02:50;13.30;;;5.40;;
72198;SDS011;60103;51.014;16.992;2022-12-07T08:05:19;13.90;;;4.70;;
72198;SDS011;60103;51.014;16.992;2022-12-07T08:07:48;17.00;;;6.40;;
72198;SDS011;60103;51.014;16.992;2022-12-07T08:10:17;12.80;;;4.90;;
72198;SDS011;60103;51.014;16.992;2022-12-07T08:12:46;15.10;;;5.30;;
72198;SDS011;60103;51.014;16.992;2022-12-07T08:15:33;13.30;;;4.80;;
72198;SDS011;60103;51.014;16.992;2022-12-07T08:18:05;14.50;;;4.80;;
72198;SDS011;60103;51.014;16.992;2022-12-07T08:20:35;15.60;;;6.60;;
72198;SDS011;60103;51.014;16.992;2022-12-07T08:23:04;13.50;;;5.10;;
72198;SDS011;60103;51.014;16.992;2022-12-07T08:25:33;14.40;;;5.40;;
72198;SDS011;60103;51.014;16.992;2022-12-07T08:28:02;11.70;;;4.60;;
72198;SDS011;60103;51.014;16.992;2022-12-07T08:30:31;13.30;;;5.20;;
72198;SDS011;60103;51.014;16.992;2022-12-07T08:33:01;12.20;;;5.30;;
72198;SDS011;60103;51.014;16.992;2022-12-07T08:35:32;13.00;;;5.30;;
72198;SDS011;60103;51.014;16.992;2022-12-07T08:38:01;14.70;;;5.40;;
72198;SDS011;60103;51.014;16.992;2022-12-07T08:40:30;12.40;;;4.80;;
72198;SDS011;60103;51.014;16.992;2022-12-07T08:42:59;12.30;;;4.20;;
72198;SDS011;60103;51.014;16.992;2022-12-07T08:45:29;15.70;;;6.20;;
72198;SDS011;60103;51.014;16.992;2022-12-07T08:48:07;13.90;;;6.00;;
72198;SDS011;60103;51.014;16.992;2022-12-07T08:50:38;13.80;;;5.30;;
72198;SDS011;60103;51.014;16.992;2022-12-07T08:53:14;12.30;;;5.30;;
72198;SDS011;60103;51.014;16.992;2022-12-07T08:55:44;14.70;;;5.80;;
72198;SDS011;60103;51.014;16.992;2022-12-07T08:58:13;10.60;;;4.10;;
72198;SDS011;60103;51.014;16.992;2022-12-07T09:00:43;11.00;;;3.80;;
72198;SDS011;60103;51.014;16.992;2022-12-07T09:03:12;12.40;;;4.50;;
72198;SDS011;60103;51.014;16.992;2022-12-07T09:05:40;13.70;;;5.20;;
72198;SDS011;60103;51.014;16.992;2022-12-07T09:08:09;13.60;;;4.90;;
72198;SDS011;60103;51.014;16.992;2022-12-07T09:10:38;11.80;;;4.10;;
72198;SDS011;60103;51.014;16.992;2022-12-07T09:13:07;11.70;;;4.50;;
72198;SDS011;60103;51.014;16.992;2022-12-07T09:15:36;13.50;;;5.20;;
72198;SDS011;60103;51.014;16.992;2022-12-07T09:18:04;12.30;;;4.40;;
72198;SDS011;60103;51.014;16.992;2022-12-07T09:20:33;11.90;;;4.50;;
72198;SDS011;60103;51.014;16.992;2022-12-07T09:23:05;13.80;;;5.70;;
72198;SDS011;60103;51.014;16.992;2022-12-07T09:25:34;10.70;;;3.90;;
72198;SDS011;60103;51.014;16.992;2022-12-07T09:28:03;12.10;;;4.40;;
72198;SDS011;60103;51.014;16.992;2022-12-07T09:30:32;9.90;;;4.20;;
72198;SDS011;60103;51.014;16.992;2022-12-07T09:33:20;11.20;;;4.40;;
72198;SDS011;60103;51.014;16.992;2022-12-07T09:35:50;11.20;;;4.30;;
72198;SDS011;60103;51.014;16.992;2022-12-07T09:38:19;10.60;;;3.70;;
72198;SDS011;60103;51.014;16.992;2022-12-07T09:40:48;12.20;;;4.70;;
72198;SDS011;60103;51.014;16.992;2022-12-07T09:43:20;11.50;;;4.20;;
72198;SDS011;60103;51.014;16.992;2022-12-07T09:45:51;11.30;;;4.50;;
72198;SDS011;60103;51.014;16.992;2022-12-07T09:48:25;11.40;;;4.20;;
72198;SDS011;60103;51.014;16.992;2022-12-07T09:50:58;12.60;;;5.50;;
72198;SDS011;60103;51.014;16.992;2022-12-07T09:53:30;14.30;;;5.10;;
72198;SDS011;60103;51.014;16.992;2022-12-07T09:56:02;10.50;;;4.00;;
72198;SDS011;60103;51.014;16.992;2022-12-07T09:58:31;12.50;;;5.00;;
72198;SDS011;60103;51.014;16.992;2022-12-07T10:01:08;11.80;;;4.40;;
72198;SDS011;60103;51.014;16.992;2022-12-07T10:03:50;12.20;;;5.00;;
72198;SDS011;60103;51.014;16.992;2022-12-07T10:06:19;12.40;;;4.70;;
72198;SDS011;60103;51.014;16.992;2022-12-07T10:08:48;12.90;;;5.10;;
72198;SDS011;60103;51.014;16.992;2022-12-07T10:11:17;14.20;;;6.10;;
72198;SDS011;60103;51.014;16.992;2022-12-07T10:13:47;10.20;;;4.00;;
72198;SDS011;60103;51.014;16.992;2022-12-07T10:18:52;10.90;;;4.00;;
72198;SDS011;60103;51.014;16.992;2022-12-07T10:21:25;13.50;;;5.40;;
72198;SDS011;60103;51.014;16.992;2022-12-07T10:24:02;14.90;;;5.90;;
72198;SDS011;60103;51.014;16.992;2022-12-07T10:26:33;13.70;;;5.30;;
72198;SDS011;60103;51.014;16.992;2022-12-07T10:31:57;11.60;;;4.50;;
72198;SDS011;60103;51.014;16.992;2022-12-07T10:34:37;9.00;;;3.20;;
72198;SDS011;60103;51.014;16.992;2022-12-07T10:37:19;8.30;;;3.10;;
72198;SDS011;60103;51.014;16.992;2022-12-07T10:39:53;9.40;;;3.50;;
72198;SDS011;60103;51.014;16.992;2022-12-07T10:42:26;9.90;;;4.00;;
72198;SDS011;60103;51.014;16.992;2022-12-07T10:50:56;8.50;;;2.80;;
72198;SDS011;60103;51.014;16.992;2022-12-07T10:58:57;9.20;;;2.90;;
72198;SDS011;60103;51.014;16.992;2022-12-07T11:01:32;8.70;;;2.60;;
72198;SDS011;60103;51.014;16.992;2022-12-07T11:12:40;9.80;;;2.80;;
72198;SDS011;60103;51.014;16.992;2022-12-07T11:17:57;8.10;;;2.70;;
72198;SDS011;60103;51.014;16.992;2022-12-07T11:29:44;7.20;;;2.30;;
72198;SDS011;60103;51.014;16.992;2022-12-07T11:32:04;8.00;;;2.90;;
72198;SDS011;60103;51.014;16.992;2022-12-07T11:35:36;8.00;;;2.50;;
72198;SDS011;60103;51.014;16.992;2022-12-07T11:37:45;7.50;;;2.90;;
72198;SDS011;60103;51.014;16.992;2022-12-07T11:45:46;8.60;;;3.10;;
72198;SDS011;60103;51.014;16.992;2022-12-07T11:48:22;9.40;;;2.80;;
72198;SDS011;60103;51.014;16.992;2022-12-07T11:50:59;7.60;;;2.60;;
72198;SDS011;60103;51.014;16.992;2022-12-07T11:53:35;7.50;;;2.50;;
72198;SDS011;60103;51.014;16.992;2022-12-07T12:06:42;8.70;;;2.50;;
72198;SDS011;60103;51.014;16.992;2022-12-07T12:21:08;7.10;;;2.30;;
72198;SDS011;60103;51.014;16.992;2022-12-07T12:23:43;8.10;;;3.10;;
72198;SDS011;60103;51.014;16.992;2022-12-07T12:26:26;6.50;;;2.10;;
72198;SDS011;60103;51.014;16.992;2022-12-07T12:28:58;8.20;;;2.30;;
72198;SDS011;60103;51.014;16.992;2022-12-07T12:31:40;7.10;;;2.40;;
72198;SDS011;60103;51.014;16.992;2022-12-07T12:34:30;6.50;;;2.20;;
72198;SDS011;60103;51.014;16.992;2022-12-07T12:37:02;6.50;;;1.90;;
72198;SDS011;60103;51.014;16.992;2022-12-07T12:42:44;8.30;;;3.10;;
72198;SDS011;60103;51.014;16.992;2022-12-07T12:47:57;8.10;;;3.10;;
72198;SDS011;60103;51.014;16.992;2022-12-07T12:50:36;7.60;;;2.80;;
72198;SDS011;60103;51.014;16.992;2022-12-07T12:53:19;7.10;;;2.70;;
72198;SDS011;60103;51.014;16.992;2022-12-07T12:55:56;7.90;;;2.80;;
72198;SDS011;60103;51.014;16.992;2022-12-07T12:58:48;7.80;;;3.00;;
72198;SDS011;60103;51.014;16.992;2022-12-07T13:04:13;7.90;;;2.50;;
72198;SDS011;60103;51.014;16.992;2022-12-07T13:06:53;9.70;;;2.90;;
72198;SDS011;60103;51.014;16.992;2022-12-07T13:09:31;7.20;;;2.40;;
72198;SDS011;60103;51.014;16.992;2022-12-07T13:12:03;8.80;;;2.80;;
72198;SDS011;60103;51.014;16.992;2022-12-07T13:17:11;8.30;;;2.30;;
72198;SDS011;60103;51.014;16.992;2022-12-07T13:20:01;6.60;;;1.90;;
72198;SDS011;60103;51.014;16.992;2022-12-07T13:22:43;7.00;;;2.30;;
72198;SDS011;60103;51.014;16.992;2022-12-07T13:27:59;9.10;;;2.50;;
72198;SDS011;60103;51.014;16.992;2022-12-07T13:30:30;8.60;;;2.40;;
72198;SDS011;60103;51.014;16.992;2022-12-07T13:32:59;8.30;;;2.50;;
72198;SDS011;60103;51.014;16.992;2022-12-07T13:35:32;7.60;;;2.40;;
72198;SDS011;60103;51.014;16.992;2022-12-07T13:38:16;9.40;;;3.00;;
72198;SDS011;60103;51.014;16.992;2022-12-07T13:41:14;9.50;;;3.10;;
72198;SDS011;60103;51.014;16.992;2022-12-07T13:44:00;7.90;;;2.50;;
72198;SDS011;60103;51.014;16.992;2022-12-07T13:49:19;7.60;;;2.60;;
72198;SDS011;60103;51.014;16.992;2022-12-07T13:51:51;7.70;;;2.60;;
72198;SDS011;60103;51.014;16.992;2022-12-07T13:54:25;7.40;;;2.80;;
72198;SDS011;60103;51.014;16.992;2022-12-07T13:56:57;7.10;;;2.20;;
72198;SDS011;60103;51.014;16.992;2022-12-07T13:59:26;6.30;;;2.50;;
72198;SDS011;60103;51.014;16.992;2022-12-07T14:01:56;7.30;;;2.80;;
72198;SDS011;60103;51.014;16.992;2022-12-07T14:09:57;7.70;;;2.70;;
72198;SDS011;60103;51.014;16.992;2022-12-07T14:12:28;8.70;;;2.90;;
72198;SDS011;60103;51.014;16.992;2022-12-07T14:14:58;8.10;;;2.40;;
72198;SDS011;60103;51.014;16.992;2022-12-07T14:17:30;10.30;;;3.20;;
72198;SDS011;60103;51.014;16.992;2022-12-07T14:19:59;7.20;;;2.40;;
72198;SDS011;60103;51.014;16.992;2022-12-07T14:22:36;8.70;;;3.10;;
72198;SDS011;60103;51.014;16.992;2022-12-07T14:27:48;9.00;;;2.90;;
72198;SDS011;60103;51.014;16.992;2022-12-07T14:30:26;6.60;;;2.30;;
72198;SDS011;60103;51.014;16.992;2022-12-07T14:32:59;9.40;;;3.00;;
72198;SDS011;60103;51.014;16.992;2022-12-07T14:35:30;10.10;;;3.20;;
72198;SDS011;60103;51.014;16.992;2022-12-07T14:37:59;7.60;;;2.60;;
72198;SDS011;60103;51.014;16.992;2022-12-07T14:40:29;7.50;;;2.70;;
72198;SDS011;60103;51.014;16.992;2022-12-07T14:43:04;8.40;;;3.50;;
72198;SDS011;60103;51.014;16.992;2022-12-07T14:45:34;10.00;;;3.00;;
72198;SDS011;60103;51.014;16.992;2022-12-07T14:48:04;8.90;;;2.90;;
72198;SDS011;60103;51.014;16.992;2022-12-07T14:50:54;8.30;;;3.00;;
72198;SDS011;60103;51.014;16.992;2022-12-07T14:53:48;8.10;;;2.50;;
72198;SDS011;60103;51.014;16.992;2022-12-07T14:56:24;8.80;;;3.40;;
72198;SDS011;60103;51.014;16.992;2022-12-07T14:58:54;9.30;;;2.90;;
72198;SDS011;60103;51.014;16.992;2022-12-07T15:01:25;8.20;;;2.60;;
72198;SDS011;60103;51.014;16.992;2022-12-07T15:03:55;10.70;;;3.70;;
72198;SDS011;60103;51.014;16.992;2022-12-07T15:06:24;9.00;;;3.10;;
72198;SDS011;60103;51.014;16.992;2022-12-07T15:08:53;10.40;;;3.30;;
72198;SDS011;60103;51.014;16.992;2022-12-07T15:11:23;8.70;;;2.80;;
72198;SDS011;60103;51.014;16.992;2022-12-07T15:13:52;8.00;;;3.00;;
72198;SDS011;60103;51.014;16.992;2022-12-07T15:16:38;9.00;;;3.50;;
72198;SDS011;60103;51.014;16.992;2022-12-07T15:19:29;8.30;;;2.20;;
72198;SDS011;60103;51.014;16.992;2022-12-07T15:21:58;7.70;;;2.70;;
72198;SDS011;60103;51.014;16.992;2022-12-07T15:24:28;8.80;;;3.50;;
72198;SDS011;60103;51.014;16.992;2022-12-07T15:26:57;8.30;;;2.90;;
72198;SDS011;60103;51.014;16.992;2022-12-07T15:29:26;8.20;;;3.00;;
72198;SDS011;60103;51.014;16.992;2022-12-07T15:31:55;9.70;;;3.10;;
72198;SDS011;60103;51.014;16.992;2022-12-07T15:34:25;8.80;;;2.80;;
72198;SDS011;60103;51.014;16.992;2022-12-07T15:37:06;7.50;;;2.50;;
72198;SDS011;60103;51.014;16.992;2022-12-07T15:39:36;9.60;;;3.10;;
72198;SDS011;60103;51.014;16.992;2022-12-07T15:42:05;9.00;;;2.80;;
72198;SDS011;60103;51.014;16.992;2022-12-07T15:44:34;10.80;;;3.00;;
72198;SDS011;60103;51.014;16.992;2022-12-07T15:47:21;8.40;;;2.30;;
72198;SDS011;60103;51.014;16.992;2022-12-07T15:49:50;9.20;;;3.10;;
72198;SDS011;60103;51.014;16.992;2022-12-07T15:52:19;7.50;;;2.40;;
72198;SDS011;60103;51.014;16.992;2022-12-07T15:54:48;8.00;;;2.40;;
72198;SDS011;60103;51.014;16.992;2022-12-07T15:57:16;8.50;;;2.90;;
72198;SDS011;60103;51.014;16.992;2022-12-07T15:59:52;8.20;;;2.70;;
72198;SDS011;60103;51.014;16.992;2022-12-07T16:02:22;7.10;;;2.50;;
72198;SDS011;60103;51.014;16.992;2022-12-07T16:04:52;7.60;;;2.80;;
72198;SDS011;60103;51.014;16.992;2022-12-07T16:07:21;7.40;;;2.70;;
72198;SDS011;60103;51.014;16.992;2022-12-07T16:09:50;6.80;;;2.00;;
72198;SDS011;60103;51.014;16.992;2022-12-07T16:12:19;8.90;;;2.80;;
72198;SDS011;60103;51.014;16.992;2022-12-07T16:14:48;6.60;;;2.10;;
72198;SDS011;60103;51.014;16.992;2022-12-07T16:17:17;7.70;;;2.40;;
72198;SDS011;60103;51.014;16.992;2022-12-07T16:19:46;6.40;;;2.10;;
72198;SDS011;60103;51.014;16.992;2022-12-07T16:22:15;7.10;;;2.10;;
72198;SDS011;60103;51.014;16.992;2022-12-07T16:24:44;6.50;;;2.10;;
72198;SDS011;60103;51.014;16.992;2022-12-07T16:27:13;7.10;;;2.20;;
72198;SDS011;60103;51.014;16.992;2022-12-07T16:29:42;8.70;;;2.70;;
72198;SDS011;60103;51.014;16.992;2022-12-07T16:32:11;6.00;;;2.10;;
72198;SDS011;60103;51.014;16.992;2022-12-07T16:34:48;7.20;;;2.60;;
72198;SDS011;60103;51.014;16.992;2022-12-07T16:37:24;8.20;;;2.60;;
72198;SDS011;60103;51.014;16.992;2022-12-07T16:40:00;7.10;;;2.00;;
72198;SDS011;60103;51.014;16.992;2022-12-07T16:42:35;7.50;;;2.30;;
72198;SDS011;60103;51.014;16.992;2022-12-07T16:45:09;8.40;;;2.20;;
72198;SDS011;60103;51.014;16.992;2022-12-07T16:47:50;6.40;;;2.30;;
72198;SDS011;60103;51.014;16.992;2022-12-07T16:50:23;7.60;;;2.40;;
72198;SDS011;60103;51.014;16.992;2022-12-07T16:52:55;8.30;;;3.10;;
72198;SDS011;60103;51.014;16.992;2022-12-07T16:55:40;7.00;;;2.30;;
72198;SDS011;60103;51.014;16.992;2022-12-07T16:58:14;7.10;;;2.20;;
72198;SDS011;60103;51.014;16.992;2022-12-07T17:00:46;9.30;;;2.60;;
72198;SDS011;60103;51.014;16.992;2022-12-07T17:03:20;6.90;;;2.10;;
72198;SDS011;60103;51.014;16.992;2022-12-07T17:05:56;7.40;;;2.60;;
72198;SDS011;60103;51.014;16.992;2022-12-07T17:08:29;8.90;;;2.60;;
72198;SDS011;60103;51.014;16.992;2022-12-07T17:11:00;8.60;;;3.10;;
72198;SDS011;60103;51.014;16.992;2022-12-07T17:13:30;9.20;;;2.50;;
72198;SDS011;60103;51.014;16.992;2022-12-07T17:16:21;10.00;;;3.20;;
72198;SDS011;60103;51.014;16.992;2022-12-07T17:18:51;10.90;;;3.30;;
72198;SDS011;60103;51.014;16.992;2022-12-07T17:21:21;9.20;;;3.40;;
72198;SDS011;60103;51.014;16.992;2022-12-07T17:23:52;8.40;;;3.20;;